sensor_id;sensor_type;location;lat;lon;timestamp;P1;durP1;ratioP1;P2;durP2;ratioP2
48813;SDS011;34634;44.108;3.074;2022-12-18T00:01:47;16.40;;;8.32;;
48813;SDS011;34634;44.108;3.074;2022-12-18T00:04:21;18.35;;;7.97;;
48813;SDS011;34634;44.108;3.074;2022-12-18T00:06:50;13.18;;;7.00;;
48813;SDS011;34634;44.108;3.074;2022-12-18T00:09:20;12.95;;;6.88;;
48813;SDS011;34634;44.108;3.074;2022-12-18T00:11:46;14.25;;;6.35;;
48813;SDS011;34634;44.108;3.074;2022-12-18T00:14:13;11.02;;;5.68;;
48813;SDS011;34634;44.108;3.074;2022-12-18T00:16:40;11.98;;;5.85;;
48813;SDS011;34634;44.108;3.074;2022-12-18T00:19:08;9.15;;;4.78;;
48813;SDS011;34634;44.108;3.074;2022-12-18T00:21:35;11.52;;;5.05;;
48813;SDS011;34634;44.108;3.074;2022-12-18T00:24:02;10.70;;;5.45;;
48813;SDS011;34634;44.108;3.074;2022-12-18T00:26:29;14.82;;;6.90;;
48813;SDS011;34634;44.108;3.074;2022-12-18T00:29:00;13.50;;;6.07;;
48813;SDS011;34634;44.108;3.074;2022-12-18T00:31:26;12.02;;;5.50;;
48813;SDS011;34634;44.108;3.074;2022-12-18T00:33:53;12.57;;;6.07;;
48813;SDS011;34634;44.108;3.074;2022-12-18T00:36:21;14.07;;;6.72;;
48813;SDS011;34634;44.108;3.074;2022-12-18T00:38:48;15.85;;;6.88;;
48813;SDS011;34634;44.108;3.074;2022-12-18T00:41:15;13.35;;;6.25;;
48813;SDS011;34634;44.108;3.074;2022-12-18T00:44:00;18.75;;;8.23;;
48813;SDS011;34634;44.108;3.074;2022-12-18T00:46:26;19.40;;;8.52;;
48813;SDS011;34634;44.108;3.074;2022-12-18T00:48:53;16.98;;;7.50;;
48813;SDS011;34634;44.108;3.074;2022-12-18T00:51:19;21.17;;;8.00;;
48813;SDS011;34634;44.108;3.074;2022-12-18T00:53:45;11.57;;;5.43;;
48813;SDS011;34634;44.108;3.074;2022-12-18T00:56:12;10.27;;;5.53;;
48813;SDS011;34634;44.108;3.074;2022-12-18T00:58:38;9.90;;;4.55;;
48813;SDS011;34634;44.108;3.074;2022-12-18T01:01:05;10.93;;;4.85;;
48813;SDS011;34634;44.108;3.074;2022-12-18T01:03:31;16.10;;;6.47;;
48813;SDS011;34634;44.108;3.074;2022-12-18T01:05:57;20.35;;;8.23;;
48813;SDS011;34634;44.108;3.074;2022-12-18T01:08:24;47.20;;;16.05;;
48813;SDS011;34634;44.108;3.074;2022-12-18T01:10:50;151.43;;;45.72;;
48813;SDS011;34634;44.108;3.074;2022-12-18T01:13:17;87.65;;;29.42;;
48813;SDS011;34634;44.108;3.074;2022-12-18T01:15:49;34.33;;;13.38;;
48813;SDS011;34634;44.108;3.074;2022-12-18T01:18:15;76.82;;;24.00;;
48813;SDS011;34634;44.108;3.074;2022-12-18T01:20:42;23.38;;;9.13;;
48813;SDS011;34634;44.108;3.074;2022-12-18T01:23:08;28.33;;;11.77;;
48813;SDS011;34634;44.108;3.074;2022-12-18T01:25:38;52.47;;;18.55;;
48813;SDS011;34634;44.108;3.074;2022-12-18T01:28:04;43.67;;;16.27;;
48813;SDS011;34634;44.108;3.074;2022-12-18T01:30:30;10.32;;;4.85;;
48813;SDS011;34634;44.108;3.074;2022-12-18T01:32:57;12.98;;;5.95;;
48813;SDS011;34634;44.108;3.074;2022-12-18T01:35:23;32.83;;;11.90;;
48813;SDS011;34634;44.108;3.074;2022-12-18T01:37:49;48.50;;;18.85;;
48813;SDS011;34634;44.108;3.074;2022-12-18T01:40:21;70.60;;;25.13;;
48813;SDS011;34634;44.108;3.074;2022-12-18T01:42:53;26.00;;;10.45;;
48813;SDS011;34634;44.108;3.074;2022-12-18T01:45:30;10.52;;;4.68;;
48813;SDS011;34634;44.108;3.074;2022-12-18T01:48:00;12.57;;;5.43;;
48813;SDS011;34634;44.108;3.074;2022-12-18T01:55:35;14.02;;;5.40;;
48813;SDS011;34634;44.108;3.074;2022-12-18T01:58:03;7.70;;;4.22;;
48813;SDS011;34634;44.108;3.074;2022-12-18T02:00:29;6.38;;;3.58;;
48813;SDS011;34634;44.108;3.074;2022-12-18T02:02:56;7.30;;;3.83;;
48813;SDS011;34634;44.108;3.074;2022-12-18T02:18:57;76.93;;;33.78;;
48813;SDS011;34634;44.108;3.074;2022-12-18T02:26:26;10.45;;;5.93;;
48813;SDS011;34634;44.108;3.074;2022-12-18T02:28:55;7.43;;;3.88;;
48813;SDS011;34634;44.108;3.074;2022-12-18T02:31:26;8.32;;;4.18;;
48813;SDS011;34634;44.108;3.074;2022-12-18T02:33:54;5.82;;;3.67;;
48813;SDS011;34634;44.108;3.074;2022-12-18T02:36:22;8.15;;;3.58;;
48813;SDS011;34634;44.108;3.074;2022-12-18T02:38:48;5.25;;;3.63;;
48813;SDS011;34634;44.108;3.074;2022-12-18T02:41:16;8.68;;;5.15;;
48813;SDS011;34634;44.108;3.074;2022-12-18T02:43:52;7.18;;;3.80;;
48813;SDS011;34634;44.108;3.074;2022-12-18T02:46:30;5.28;;;3.25;;
48813;SDS011;34634;44.108;3.074;2022-12-18T02:55:12;9.35;;;4.78;;
48813;SDS011;34634;44.108;3.074;2022-12-18T02:57:19;9.45;;;4.15;;
48813;SDS011;34634;44.108;3.074;2022-12-18T03:02:18;33.75;;;19.13;;
48813;SDS011;34634;44.108;3.074;2022-12-18T03:04:56;7.53;;;4.07;;
48813;SDS011;34634;44.108;3.074;2022-12-18T03:07:27;5.82;;;3.17;;
48813;SDS011;34634;44.108;3.074;2022-12-18T03:09:59;5.68;;;2.70;;
48813;SDS011;34634;44.108;3.074;2022-12-18T03:12:33;5.43;;;2.95;;
48813;SDS011;34634;44.108;3.074;2022-12-18T03:15:20;4.15;;;2.55;;
48813;SDS011;34634;44.108;3.074;2022-12-18T03:17:57;6.35;;;3.15;;
48813;SDS011;34634;44.108;3.074;2022-12-18T03:20:25;6.75;;;3.25;;
48813;SDS011;34634;44.108;3.074;2022-12-18T03:22:54;6.00;;;3.10;;
48813;SDS011;34634;44.108;3.074;2022-12-18T03:25:21;11.23;;;4.88;;
48813;SDS011;34634;44.108;3.074;2022-12-18T03:27:49;9.65;;;5.10;;
48813;SDS011;34634;44.108;3.074;2022-12-18T03:30:20;10.73;;;5.30;;
48813;SDS011;34634;44.108;3.074;2022-12-18T03:32:47;9.93;;;4.60;;
48813;SDS011;34634;44.108;3.074;2022-12-18T03:35:16;12.38;;;5.22;;
48813;SDS011;34634;44.108;3.074;2022-12-18T03:37:44;9.02;;;4.60;;
48813;SDS011;34634;44.108;3.074;2022-12-18T03:40:11;8.70;;;4.38;;
48813;SDS011;34634;44.108;3.074;2022-12-18T03:42:45;8.82;;;3.97;;
48813;SDS011;34634;44.108;3.074;2022-12-18T03:47:59;7.22;;;3.42;;
48813;SDS011;34634;44.108;3.074;2022-12-18T03:53:15;6.25;;;3.28;;
48813;SDS011;34634;44.108;3.074;2022-12-18T03:55:43;6.93;;;3.75;;
48813;SDS011;34634;44.108;3.074;2022-12-18T03:58:11;7.05;;;4.03;;
48813;SDS011;34634;44.108;3.074;2022-12-18T04:00:39;9.23;;;3.55;;
48813;SDS011;34634;44.108;3.074;2022-12-18T04:03:05;9.65;;;4.00;;
48813;SDS011;34634;44.108;3.074;2022-12-18T04:05:33;6.40;;;3.30;;
48813;SDS011;34634;44.108;3.074;2022-12-18T04:08:00;5.90;;;3.20;;
48813;SDS011;34634;44.108;3.074;2022-12-18T04:10:28;8.20;;;3.28;;
48813;SDS011;34634;44.108;3.074;2022-12-18T04:12:57;5.38;;;2.95;;
48813;SDS011;34634;44.108;3.074;2022-12-18T04:15:24;6.93;;;3.30;;
48813;SDS011;34634;44.108;3.074;2022-12-18T04:17:50;4.97;;;2.92;;
48813;SDS011;34634;44.108;3.074;2022-12-18T04:20:17;5.60;;;2.97;;
48813;SDS011;34634;44.108;3.074;2022-12-18T04:22:43;6.85;;;3.17;;
48813;SDS011;34634;44.108;3.074;2022-12-18T04:25:09;7.18;;;3.30;;
48813;SDS011;34634;44.108;3.074;2022-12-18T04:27:36;4.95;;;2.92;;
48813;SDS011;34634;44.108;3.074;2022-12-18T04:30:02;9.35;;;3.78;;
48813;SDS011;34634;44.108;3.074;2022-12-18T04:32:29;5.47;;;3.20;;
48813;SDS011;34634;44.108;3.074;2022-12-18T04:34:56;6.75;;;2.97;;
48813;SDS011;34634;44.108;3.074;2022-12-18T04:37:22;4.88;;;2.78;;
48813;SDS011;34634;44.108;3.074;2022-12-18T04:39:48;5.93;;;2.80;;
48813;SDS011;34634;44.108;3.074;2022-12-18T04:42:15;5.65;;;3.28;;
48813;SDS011;34634;44.108;3.074;2022-12-18T04:44:41;5.50;;;2.92;;
48813;SDS011;34634;44.108;3.074;2022-12-18T04:47:07;6.97;;;3.00;;
48813;SDS011;34634;44.108;3.074;2022-12-18T04:49:34;5.00;;;2.85;;
48813;SDS011;34634;44.108;3.074;2022-12-18T04:52:00;6.13;;;2.95;;
48813;SDS011;34634;44.108;3.074;2022-12-18T04:54:26;5.50;;;2.90;;
48813;SDS011;34634;44.108;3.074;2022-12-18T04:56:53;6.40;;;2.58;;
48813;SDS011;34634;44.108;3.074;2022-12-18T04:59:19;5.00;;;2.85;;
48813;SDS011;34634;44.108;3.074;2022-12-18T05:01:45;6.65;;;3.63;;
48813;SDS011;34634;44.108;3.074;2022-12-18T05:04:12;6.43;;;3.00;;
48813;SDS011;34634;44.108;3.074;2022-12-18T05:06:38;9.93;;;3.40;;
48813;SDS011;34634;44.108;3.074;2022-12-18T05:09:04;7.00;;;3.38;;
48813;SDS011;34634;44.108;3.074;2022-12-18T05:11:30;6.32;;;3.20;;
48813;SDS011;34634;44.108;3.074;2022-12-18T05:13:57;9.90;;;4.40;;
48813;SDS011;34634;44.108;3.074;2022-12-18T05:16:23;8.75;;;3.83;;
48813;SDS011;34634;44.108;3.074;2022-12-18T05:18:50;18.70;;;6.80;;
48813;SDS011;34634;44.108;3.074;2022-12-18T05:21:16;29.58;;;11.15;;
48813;SDS011;34634;44.108;3.074;2022-12-18T05:23:45;11.82;;;4.85;;
48813;SDS011;34634;44.108;3.074;2022-12-18T05:26:14;6.35;;;2.97;;
48813;SDS011;34634;44.108;3.074;2022-12-18T05:28:40;5.70;;;2.75;;
48813;SDS011;34634;44.108;3.074;2022-12-18T05:31:07;5.30;;;2.78;;
48813;SDS011;34634;44.108;3.074;2022-12-18T05:33:34;6.57;;;3.05;;
48813;SDS011;34634;44.108;3.074;2022-12-18T05:36:01;7.00;;;2.95;;
48813;SDS011;34634;44.108;3.074;2022-12-18T05:38:29;7.72;;;3.58;;
48813;SDS011;34634;44.108;3.074;2022-12-18T05:40:55;6.82;;;3.75;;
48813;SDS011;34634;44.108;3.074;2022-12-18T05:43:24;14.10;;;6.00;;
48813;SDS011;34634;44.108;3.074;2022-12-18T05:45:51;10.60;;;5.03;;
48813;SDS011;34634;44.108;3.074;2022-12-18T05:48:18;9.90;;;4.65;;
48813;SDS011;34634;44.108;3.074;2022-12-18T05:50:45;8.23;;;3.65;;
48813;SDS011;34634;44.108;3.074;2022-12-18T05:53:12;6.25;;;3.22;;
48813;SDS011;34634;44.108;3.074;2022-12-18T05:55:39;4.75;;;2.50;;
48813;SDS011;34634;44.108;3.074;2022-12-18T05:58:07;5.05;;;2.55;;
48813;SDS011;34634;44.108;3.074;2022-12-18T06:00:34;5.22;;;2.20;;
48813;SDS011;34634;44.108;3.074;2022-12-18T06:03:01;5.65;;;2.40;;
48813;SDS011;34634;44.108;3.074;2022-12-18T06:05:27;4.57;;;2.30;;
48813;SDS011;34634;44.108;3.074;2022-12-18T06:07:54;6.22;;;2.95;;
48813;SDS011;34634;44.108;3.074;2022-12-18T06:10:20;4.55;;;2.47;;
48813;SDS011;34634;44.108;3.074;2022-12-18T06:12:46;5.85;;;2.83;;
48813;SDS011;34634;44.108;3.074;2022-12-18T06:15:13;5.07;;;2.72;;
48813;SDS011;34634;44.108;3.074;2022-12-18T06:17:39;3.97;;;2.22;;
48813;SDS011;34634;44.108;3.074;2022-12-18T06:20:05;6.45;;;2.50;;
48813;SDS011;34634;44.108;3.074;2022-12-18T06:22:32;5.22;;;2.80;;
48813;SDS011;34634;44.108;3.074;2022-12-18T06:24:58;4.40;;;2.97;;
48813;SDS011;34634;44.108;3.074;2022-12-18T06:27:25;9.38;;;4.20;;
48813;SDS011;34634;44.108;3.074;2022-12-18T06:29:51;18.63;;;7.03;;
48813;SDS011;34634;44.108;3.074;2022-12-18T06:32:18;15.85;;;6.97;;
48813;SDS011;34634;44.108;3.074;2022-12-18T06:34:44;16.13;;;6.68;;
48813;SDS011;34634;44.108;3.074;2022-12-18T06:37:10;14.90;;;5.38;;
48813;SDS011;34634;44.108;3.074;2022-12-18T06:39:36;12.50;;;4.85;;
48813;SDS011;34634;44.108;3.074;2022-12-18T06:42:03;10.10;;;5.10;;
48813;SDS011;34634;44.108;3.074;2022-12-18T06:44:29;11.40;;;5.38;;
48813;SDS011;34634;44.108;3.074;2022-12-18T06:46:56;9.02;;;4.90;;
48813;SDS011;34634;44.108;3.074;2022-12-18T06:49:22;9.27;;;4.25;;
48813;SDS011;34634;44.108;3.074;2022-12-18T06:51:48;8.77;;;4.20;;
48813;SDS011;34634;44.108;3.074;2022-12-18T06:54:15;9.05;;;3.53;;
48813;SDS011;34634;44.108;3.074;2022-12-18T06:56:41;5.28;;;2.70;;
48813;SDS011;34634;44.108;3.074;2022-12-18T06:59:07;3.20;;;2.03;;
48813;SDS011;34634;44.108;3.074;2022-12-18T07:01:34;3.78;;;2.30;;
48813;SDS011;34634;44.108;3.074;2022-12-18T07:04:00;4.47;;;2.00;;
48813;SDS011;34634;44.108;3.074;2022-12-18T07:06:26;3.63;;;2.38;;
48813;SDS011;34634;44.108;3.074;2022-12-18T07:08:53;4.55;;;2.30;;
48813;SDS011;34634;44.108;3.074;2022-12-18T07:11:19;4.20;;;2.47;;
48813;SDS011;34634;44.108;3.074;2022-12-18T07:13:46;4.20;;;2.33;;
48813;SDS011;34634;44.108;3.074;2022-12-18T07:16:13;6.20;;;2.80;;
48813;SDS011;34634;44.108;3.074;2022-12-18T07:18:40;7.80;;;2.95;;
48813;SDS011;34634;44.108;3.074;2022-12-18T07:21:07;4.15;;;2.75;;
48813;SDS011;34634;44.108;3.074;2022-12-18T07:23:34;5.45;;;2.45;;
48813;SDS011;34634;44.108;3.074;2022-12-18T07:26:04;5.78;;;3.33;;
48813;SDS011;34634;44.108;3.074;2022-12-18T07:28:31;4.97;;;2.67;;
48813;SDS011;34634;44.108;3.074;2022-12-18T07:31:01;4.68;;;2.92;;
48813;SDS011;34634;44.108;3.074;2022-12-18T07:33:28;5.95;;;2.40;;
48813;SDS011;34634;44.108;3.074;2022-12-18T07:35:54;4.95;;;2.67;;
48813;SDS011;34634;44.108;3.074;2022-12-18T07:38:21;6.20;;;2.33;;
48813;SDS011;34634;44.108;3.074;2022-12-18T07:40:47;4.13;;;2.70;;
48813;SDS011;34634;44.108;3.074;2022-12-18T07:43:14;5.60;;;2.85;;
48813;SDS011;34634;44.108;3.074;2022-12-18T07:45:41;8.27;;;3.97;;
48813;SDS011;34634;44.108;3.074;2022-12-18T07:48:08;7.45;;;3.70;;
48813;SDS011;34634;44.108;3.074;2022-12-18T07:50:34;5.03;;;2.40;;
48813;SDS011;34634;44.108;3.074;2022-12-18T07:53:00;7.00;;;3.00;;
48813;SDS011;34634;44.108;3.074;2022-12-18T07:55:31;4.15;;;2.50;;
48813;SDS011;34634;44.108;3.074;2022-12-18T07:58:00;4.93;;;2.88;;
48813;SDS011;34634;44.108;3.074;2022-12-18T08:00:26;5.00;;;2.85;;
48813;SDS011;34634;44.108;3.074;2022-12-18T08:02:52;4.32;;;2.67;;
48813;SDS011;34634;44.108;3.074;2022-12-18T08:05:19;6.38;;;3.08;;
48813;SDS011;34634;44.108;3.074;2022-12-18T08:07:46;6.93;;;3.58;;
48813;SDS011;34634;44.108;3.074;2022-12-18T08:10:12;9.27;;;4.80;;
48813;SDS011;34634;44.108;3.074;2022-12-18T08:12:39;14.35;;;6.50;;
48813;SDS011;34634;44.108;3.074;2022-12-18T08:15:05;11.13;;;5.50;;
48813;SDS011;34634;44.108;3.074;2022-12-18T08:17:32;7.38;;;4.45;;
48813;SDS011;34634;44.108;3.074;2022-12-18T08:19:58;7.85;;;4.18;;
48813;SDS011;34634;44.108;3.074;2022-12-18T08:22:25;6.10;;;3.10;;
48813;SDS011;34634;44.108;3.074;2022-12-18T08:24:51;4.35;;;3.08;;
48813;SDS011;34634;44.108;3.074;2022-12-18T08:27:17;6.38;;;2.90;;
48813;SDS011;34634;44.108;3.074;2022-12-18T08:29:44;4.82;;;2.72;;
48813;SDS011;34634;44.108;3.074;2022-12-18T08:32:10;6.22;;;3.25;;
48813;SDS011;34634;44.108;3.074;2022-12-18T08:34:36;4.78;;;2.67;;
48813;SDS011;34634;44.108;3.074;2022-12-18T08:37:03;4.55;;;2.40;;
48813;SDS011;34634;44.108;3.074;2022-12-18T08:39:29;4.57;;;2.42;;
48813;SDS011;34634;44.108;3.074;2022-12-18T08:41:56;5.90;;;3.13;;
48813;SDS011;34634;44.108;3.074;2022-12-18T08:44:41;5.18;;;2.92;;
48813;SDS011;34634;44.108;3.074;2022-12-18T08:47:07;4.43;;;2.72;;
48813;SDS011;34634;44.108;3.074;2022-12-18T08:49:34;7.90;;;3.80;;
48813;SDS011;34634;44.108;3.074;2022-12-18T08:52:01;7.93;;;3.83;;
48813;SDS011;34634;44.108;3.074;2022-12-18T08:54:28;6.90;;;3.47;;
48813;SDS011;34634;44.108;3.074;2022-12-18T08:56:54;5.13;;;2.88;;
48813;SDS011;34634;44.108;3.074;2022-12-18T08:59:21;4.15;;;2.58;;
48813;SDS011;34634;44.108;3.074;2022-12-18T09:01:48;5.47;;;2.72;;
48813;SDS011;34634;44.108;3.074;2022-12-18T09:04:14;6.38;;;2.60;;
48813;SDS011;34634;44.108;3.074;2022-12-18T09:06:41;3.72;;;2.88;;
48813;SDS011;34634;44.108;3.074;2022-12-18T09:09:08;5.18;;;2.80;;
48813;SDS011;34634;44.108;3.074;2022-12-18T09:11:36;5.07;;;2.97;;
48813;SDS011;34634;44.108;3.074;2022-12-18T09:14:03;6.18;;;4.03;;
48813;SDS011;34634;44.108;3.074;2022-12-18T09:16:29;12.35;;;5.95;;
48813;SDS011;34634;44.108;3.074;2022-12-18T09:18:57;10.93;;;4.68;;
48813;SDS011;34634;44.108;3.074;2022-12-18T09:21:27;11.20;;;5.93;;
48813;SDS011;34634;44.108;3.074;2022-12-18T09:23:54;11.63;;;5.72;;
48813;SDS011;34634;44.108;3.074;2022-12-18T09:26:22;15.50;;;7.28;;
48813;SDS011;34634;44.108;3.074;2022-12-18T09:28:49;12.68;;;8.27;;
48813;SDS011;34634;44.108;3.074;2022-12-18T09:31:16;11.15;;;6.63;;
48813;SDS011;34634;44.108;3.074;2022-12-18T09:33:42;12.93;;;6.43;;
48813;SDS011;34634;44.108;3.074;2022-12-18T09:36:11;27.58;;;10.50;;
48813;SDS011;34634;44.108;3.074;2022-12-18T09:38:38;48.13;;;16.13;;
48813;SDS011;34634;44.108;3.074;2022-12-18T09:41:05;18.80;;;8.40;;
48813;SDS011;34634;44.108;3.074;2022-12-18T09:43:36;14.40;;;6.95;;
48813;SDS011;34634;44.108;3.074;2022-12-18T09:46:07;15.65;;;6.95;;
48813;SDS011;34634;44.108;3.074;2022-12-18T09:48:52;10.13;;;5.18;;
48813;SDS011;34634;44.108;3.074;2022-12-18T09:51:22;9.52;;;5.18;;
48813;SDS011;34634;44.108;3.074;2022-12-18T09:54:12;7.07;;;3.67;;
48813;SDS011;34634;44.108;3.074;2022-12-18T09:56:38;7.43;;;4.13;;
48813;SDS011;34634;44.108;3.074;2022-12-18T09:59:06;7.50;;;3.10;;
48813;SDS011;34634;44.108;3.074;2022-12-18T10:01:35;6.35;;;3.72;;
48813;SDS011;34634;44.108;3.074;2022-12-18T10:04:01;6.55;;;3.25;;
48813;SDS011;34634;44.108;3.074;2022-12-18T10:14:23;32.10;;;12.85;;
48813;SDS011;34634;44.108;3.074;2022-12-18T10:19:41;10.88;;;5.18;;
48813;SDS011;34634;44.108;3.074;2022-12-18T10:24:53;10.02;;;6.28;;
48813;SDS011;34634;44.108;3.074;2022-12-18T10:27:22;14.07;;;7.10;;
48813;SDS011;34634;44.108;3.074;2022-12-18T10:29:49;15.68;;;7.32;;
48813;SDS011;34634;44.108;3.074;2022-12-18T10:32:16;13.45;;;5.32;;
48813;SDS011;34634;44.108;3.074;2022-12-18T10:34:47;8.15;;;4.68;;
48813;SDS011;34634;44.108;3.074;2022-12-18T10:37:15;9.07;;;5.00;;
48813;SDS011;34634;44.108;3.074;2022-12-18T10:39:42;9.35;;;4.97;;
48813;SDS011;34634;44.108;3.074;2022-12-18T10:42:19;9.50;;;4.75;;
48813;SDS011;34634;44.108;3.074;2022-12-18T10:44:45;10.35;;;5.10;;
48813;SDS011;34634;44.108;3.074;2022-12-18T10:47:14;11.80;;;5.93;;
48813;SDS011;34634;44.108;3.074;2022-12-18T10:49:42;73.32;;;38.33;;
48813;SDS011;34634;44.108;3.074;2022-12-18T10:52:15;20.85;;;11.50;;
48813;SDS011;34634;44.108;3.074;2022-12-18T10:57:29;84.55;;;44.05;;
48813;SDS011;34634;44.108;3.074;2022-12-18T10:59:57;45.00;;;23.75;;
48813;SDS011;34634;44.108;3.074;2022-12-18T11:02:34;23.50;;;12.82;;
48813;SDS011;34634;44.108;3.074;2022-12-18T11:05:01;18.80;;;10.00;;
48813;SDS011;34634;44.108;3.074;2022-12-18T11:10:15;5.88;;;4.05;;
48813;SDS011;34634;44.108;3.074;2022-12-18T11:12:42;10.10;;;5.57;;
48813;SDS011;34634;44.108;3.074;2022-12-18T11:15:16;9.05;;;5.03;;
48813;SDS011;34634;44.108;3.074;2022-12-18T11:17:42;9.23;;;5.60;;
48813;SDS011;34634;44.108;3.074;2022-12-18T11:22:55;7.13;;;4.80;;
48813;SDS011;34634;44.108;3.074;2022-12-18T11:25:22;8.77;;;5.10;;
48813;SDS011;34634;44.108;3.074;2022-12-18T11:27:53;9.57;;;5.32;;
48813;SDS011;34634;44.108;3.074;2022-12-18T11:30:25;8.88;;;4.90;;
48813;SDS011;34634;44.108;3.074;2022-12-18T11:33:09;8.27;;;4.20;;
48813;SDS011;34634;44.108;3.074;2022-12-18T11:35:47;8.75;;;4.82;;
48813;SDS011;34634;44.108;3.074;2022-12-18T11:38:21;10.98;;;5.15;;
48813;SDS011;34634;44.108;3.074;2022-12-18T11:40:54;13.32;;;8.52;;
48813;SDS011;34634;44.108;3.074;2022-12-18T11:43:35;8.18;;;5.47;;
48813;SDS011;34634;44.108;3.074;2022-12-18T11:46:26;9.75;;;5.53;;
48813;SDS011;34634;44.108;3.074;2022-12-18T11:51:27;13.13;;;5.93;;
48813;SDS011;34634;44.108;3.074;2022-12-18T11:53:55;10.55;;;5.93;;
48813;SDS011;34634;44.108;3.074;2022-12-18T11:56:33;11.43;;;6.45;;
48813;SDS011;34634;44.108;3.074;2022-12-18T12:01:50;21.40;;;10.55;;
48813;SDS011;34634;44.108;3.074;2022-12-18T12:04:22;21.58;;;12.05;;
48813;SDS011;34634;44.108;3.074;2022-12-18T12:12:10;17.92;;;10.85;;
48813;SDS011;34634;44.108;3.074;2022-12-18T12:15:00;22.02;;;10.68;;
48813;SDS011;34634;44.108;3.074;2022-12-18T12:17:34;20.42;;;10.57;;
48813;SDS011;34634;44.108;3.074;2022-12-18T12:20:11;21.10;;;11.43;;
48813;SDS011;34634;44.108;3.074;2022-12-18T12:30:34;26.48;;;12.40;;
48813;SDS011;34634;44.108;3.074;2022-12-18T12:40:31;22.08;;;11.75;;
48813;SDS011;34634;44.108;3.074;2022-12-18T12:43:01;21.30;;;11.88;;
48813;SDS011;34634;44.108;3.074;2022-12-18T12:48:14;15.05;;;8.82;;
48813;SDS011;34634;44.108;3.074;2022-12-18T12:50:42;13.68;;;7.82;;
48813;SDS011;34634;44.108;3.074;2022-12-18T12:53:21;15.63;;;9.27;;
48813;SDS011;34634;44.108;3.074;2022-12-18T12:55:48;17.13;;;9.20;;
48813;SDS011;34634;44.108;3.074;2022-12-18T13:00:53;18.15;;;9.88;;
48813;SDS011;34634;44.108;3.074;2022-12-18T13:05:53;23.33;;;13.27;;
48813;SDS011;34634;44.108;3.074;2022-12-18T13:10:53;22.92;;;14.23;;
48813;SDS011;34634;44.108;3.074;2022-12-18T13:13:54;28.67;;;14.60;;
48813;SDS011;34634;44.108;3.074;2022-12-18T13:16:22;32.80;;;16.85;;
48813;SDS011;34634;44.108;3.074;2022-12-18T13:18:52;54.42;;;28.88;;
48813;SDS011;34634;44.108;3.074;2022-12-18T13:21:24;22.17;;;11.60;;
48813;SDS011;34634;44.108;3.074;2022-12-18T13:23:52;29.77;;;15.38;;
48813;SDS011;34634;44.108;3.074;2022-12-18T13:31:12;21.27;;;13.32;;
48813;SDS011;34634;44.108;3.074;2022-12-18T13:33:39;23.30;;;13.40;;
48813;SDS011;34634;44.108;3.074;2022-12-18T13:38:55;18.63;;;10.48;;
48813;SDS011;34634;44.108;3.074;2022-12-18T13:41:34;23.08;;;10.25;;
48813;SDS011;34634;44.108;3.074;2022-12-18T13:46:42;20.60;;;11.25;;
48813;SDS011;34634;44.108;3.074;2022-12-18T13:51:49;25.00;;;12.25;;
48813;SDS011;34634;44.108;3.074;2022-12-18T13:56:46;29.45;;;12.57;;
48813;SDS011;34634;44.108;3.074;2022-12-18T13:59:17;22.52;;;13.27;;
48813;SDS011;34634;44.108;3.074;2022-12-18T14:04:18;37.35;;;14.07;;
48813;SDS011;34634;44.108;3.074;2022-12-18T14:06:46;41.78;;;15.30;;
48813;SDS011;34634;44.108;3.074;2022-12-18T14:09:23;40.85;;;19.00;;
48813;SDS011;34634;44.108;3.074;2022-12-18T14:11:50;40.60;;;17.38;;
48813;SDS011;34634;44.108;3.074;2022-12-18T14:14:17;55.58;;;22.15;;
48813;SDS011;34634;44.108;3.074;2022-12-18T14:16:45;44.88;;;21.58;;
48813;SDS011;34634;44.108;3.074;2022-12-18T14:19:14;42.83;;;17.65;;
48813;SDS011;34634;44.108;3.074;2022-12-18T14:21:48;38.83;;;16.75;;
48813;SDS011;34634;44.108;3.074;2022-12-18T14:24:19;21.70;;;11.75;;
48813;SDS011;34634;44.108;3.074;2022-12-18T14:26:47;28.70;;;11.07;;
48813;SDS011;34634;44.108;3.074;2022-12-18T14:29:18;18.40;;;9.07;;
48813;SDS011;34634;44.108;3.074;2022-12-18T14:31:45;22.13;;;10.02;;
48813;SDS011;34634;44.108;3.074;2022-12-18T14:34:15;17.92;;;7.25;;
48813;SDS011;34634;44.108;3.074;2022-12-18T14:36:44;14.37;;;6.40;;
48813;SDS011;34634;44.108;3.074;2022-12-18T14:39:17;12.88;;;5.90;;
48813;SDS011;34634;44.108;3.074;2022-12-18T14:41:44;30.38;;;18.33;;
48813;SDS011;34634;44.108;3.074;2022-12-18T14:44:11;24.88;;;9.98;;
48813;SDS011;34634;44.108;3.074;2022-12-18T14:46:39;17.83;;;10.02;;
48813;SDS011;34634;44.108;3.074;2022-12-18T14:51:41;19.10;;;9.82;;
48813;SDS011;34634;44.108;3.074;2022-12-18T14:54:16;26.35;;;14.50;;
48813;SDS011;34634;44.108;3.074;2022-12-18T14:56:51;26.92;;;14.80;;
48813;SDS011;34634;44.108;3.074;2022-12-18T15:04:28;28.83;;;11.80;;
48813;SDS011;34634;44.108;3.074;2022-12-18T15:09:22;16.05;;;6.80;;
48813;SDS011;34634;44.108;3.074;2022-12-18T15:11:49;14.00;;;6.53;;
48813;SDS011;34634;44.108;3.074;2022-12-18T15:17:01;15.98;;;9.75;;
48813;SDS011;34634;44.108;3.074;2022-12-18T15:19:40;17.33;;;7.90;;
48813;SDS011;34634;44.108;3.074;2022-12-18T15:24:49;8.40;;;3.63;;
48813;SDS011;34634;44.108;3.074;2022-12-18T15:27:22;8.48;;;4.50;;
48813;SDS011;34634;44.108;3.074;2022-12-18T15:32:27;7.10;;;2.75;;
48813;SDS011;34634;44.108;3.074;2022-12-18T15:37:38;7.60;;;3.28;;
48813;SDS011;34634;44.108;3.074;2022-12-18T15:40:05;5.43;;;3.03;;
48813;SDS011;34634;44.108;3.074;2022-12-18T15:42:32;7.22;;;3.53;;
48813;SDS011;34634;44.108;3.074;2022-12-18T15:45:16;5.63;;;2.97;;
48813;SDS011;34634;44.108;3.074;2022-12-18T15:47:43;6.53;;;3.38;;
48813;SDS011;34634;44.108;3.074;2022-12-18T15:50:10;6.13;;;2.97;;
48813;SDS011;34634;44.108;3.074;2022-12-18T15:52:39;6.13;;;3.30;;
48813;SDS011;34634;44.108;3.074;2022-12-18T15:55:10;6.70;;;2.83;;
48813;SDS011;34634;44.108;3.074;2022-12-18T15:57:56;12.55;;;3.78;;
48813;SDS011;34634;44.108;3.074;2022-12-18T16:00:22;8.63;;;3.45;;
48813;SDS011;34634;44.108;3.074;2022-12-18T16:02:49;4.93;;;2.88;;
48813;SDS011;34634;44.108;3.074;2022-12-18T16:05:15;7.28;;;3.30;;
48813;SDS011;34634;44.108;3.074;2022-12-18T16:07:42;7.45;;;3.60;;
48813;SDS011;34634;44.108;3.074;2022-12-18T16:10:09;8.57;;;3.33;;
48813;SDS011;34634;44.108;3.074;2022-12-18T16:12:36;9.48;;;5.18;;
48813;SDS011;34634;44.108;3.074;2022-12-18T16:15:03;6.40;;;3.38;;
48813;SDS011;34634;44.108;3.074;2022-12-18T16:17:29;9.73;;;3.13;;
48813;SDS011;34634;44.108;3.074;2022-12-18T16:19:56;6.65;;;3.05;;
48813;SDS011;34634;44.108;3.074;2022-12-18T16:22:26;7.85;;;3.15;;
48813;SDS011;34634;44.108;3.074;2022-12-18T16:24:54;8.32;;;3.20;;
48813;SDS011;34634;44.108;3.074;2022-12-18T16:27:21;7.95;;;3.40;;
48813;SDS011;34634;44.108;3.074;2022-12-18T16:29:47;7.07;;;3.10;;
48813;SDS011;34634;44.108;3.074;2022-12-18T16:32:15;10.05;;;2.80;;
48813;SDS011;34634;44.108;3.074;2022-12-18T16:34:41;8.90;;;4.22;;
48813;SDS011;34634;44.108;3.074;2022-12-18T16:37:09;6.05;;;3.20;;
48813;SDS011;34634;44.108;3.074;2022-12-18T16:39:36;8.65;;;3.88;;
48813;SDS011;34634;44.108;3.074;2022-12-18T16:42:04;6.18;;;3.13;;
48813;SDS011;34634;44.108;3.074;2022-12-18T16:44:30;10.05;;;3.40;;
48813;SDS011;34634;44.108;3.074;2022-12-18T16:46:57;7.43;;;2.60;;
48813;SDS011;34634;44.108;3.074;2022-12-18T16:49:27;15.00;;;7.72;;
48813;SDS011;34634;44.108;3.074;2022-12-18T16:51:54;8.45;;;2.42;;
48813;SDS011;34634;44.108;3.074;2022-12-18T16:54:20;4.47;;;2.30;;
48813;SDS011;34634;44.108;3.074;2022-12-18T16:56:46;6.68;;;2.20;;
48813;SDS011;34634;44.108;3.074;2022-12-18T16:59:16;4.95;;;2.78;;
48813;SDS011;34634;44.108;3.074;2022-12-18T17:01:42;12.52;;;4.63;;
48813;SDS011;34634;44.108;3.074;2022-12-18T17:04:08;4.40;;;2.33;;